sensor_id;sensor_type;location;lat;lon;timestamp;pressure;altitude;pressure_sealevel;temperature;humidity
550;BME280;20066;48.764;9.176;2022-12-18T00:01:26;99303.19;;;-4.38;60.32
550;BME280;20066;48.764;9.176;2022-12-18T00:03:55;99300.66;;;-3.72;59.60
550;BME280;20066;48.764;9.176;2022-12-18T00:06:26;99308.53;;;-3.87;59.62
550;BME280;20066;48.764;9.176;2022-12-18T00:08:56;99314.00;;;-4.04;59.60
550;BME280;20066;48.764;9.176;2022-12-18T00:11:26;99306.16;;;-3.94;60.68
550;BME280;20066;48.764;9.176;2022-12-18T00:13:56;99305.69;;;-3.60;59.26
550;BME280;20066;48.764;9.176;2022-12-18T00:16:26;99301.72;;;-3.58;58.39
550;BME280;20066;48.764;9.176;2022-12-18T00:18:56;99304.84;;;-3.96;60.23
550;BME280;20066;48.764;9.176;2022-12-18T00:21:26;99315.13;;;-3.69;59.38
550;BME280;20066;48.764;9.176;2022-12-18T00:23:54;99316.94;;;-3.80;59.45
550;BME280;20066;48.764;9.176;2022-12-18T00:26:24;99311.97;;;-3.41;58.68
550;BME280;20066;48.764;9.176;2022-12-18T00:28:52;99304.63;;;-3.49;59.24
550;BME280;20066;48.764;9.176;2022-12-18T00:31:23;99303.81;;;-3.19;57.40
550;BME280;20066;48.764;9.176;2022-12-18T00:33:53;99306.97;;;-3.42;57.93
550;BME280;20066;48.764;9.176;2022-12-18T00:36:29;99305.41;;;-3.28;58.62
550;BME280;20066;48.764;9.176;2022-12-18T00:39:02;99321.19;;;-3.38;58.55
550;BME280;20066;48.764;9.176;2022-12-18T00:41:31;99326.72;;;-3.30;58.36
550;BME280;20066;48.764;9.176;2022-12-18T00:44:18;99326.94;;;-3.11;57.48
550;BME280;20066;48.764;9.176;2022-12-18T00:46:46;99320.13;;;-3.22;58.54
550;BME280;20066;48.764;9.176;2022-12-18T00:49:16;99318.56;;;-3.54;57.88
550;BME280;20066;48.764;9.176;2022-12-18T00:51:46;99321.91;;;-3.89;59.97
550;BME280;20066;48.764;9.176;2022-12-18T00:54:15;99324.31;;;-3.41;58.66
550;BME280;20066;48.764;9.176;2022-12-18T00:56:43;99321.97;;;-3.48;59.84
550;BME280;20066;48.764;9.176;2022-12-18T00:59:16;99328.03;;;-3.37;58.21
550;BME280;20066;48.764;9.176;2022-12-18T01:01:44;99321.41;;;-3.05;58.13
550;BME280;20066;48.764;9.176;2022-12-18T01:04:13;99319.56;;;-3.09;58.00
550;BME280;20066;48.764;9.176;2022-12-18T01:06:41;99313.81;;;-3.21;58.31
550;BME280;20066;48.764;9.176;2022-12-18T01:09:11;99320.88;;;-3.12;58.36
550;BME280;20066;48.764;9.176;2022-12-18T01:11:39;99315.16;;;-3.44;58.93
550;BME280;20066;48.764;9.176;2022-12-18T01:14:07;99306.97;;;-3.58;59.57
550;BME280;20066;48.764;9.176;2022-12-18T01:16:35;99312.19;;;-4.03;62.14
550;BME280;20066;48.764;9.176;2022-12-18T01:19:03;99319.84;;;-3.71;61.54
550;BME280;20066;48.764;9.176;2022-12-18T01:21:30;99312.69;;;-4.22;63.99
550;BME280;20066;48.764;9.176;2022-12-18T01:23:58;99311.63;;;-4.15;64.68
550;BME280;20066;48.764;9.176;2022-12-18T01:26:28;99322.72;;;-4.71;64.70
550;BME280;20066;48.764;9.176;2022-12-18T01:28:56;99323.69;;;-4.25;63.80
550;BME280;20066;48.764;9.176;2022-12-18T01:31:25;99321.84;;;-4.19;63.76
550;BME280;20066;48.764;9.176;2022-12-18T01:33:55;99324.81;;;-3.95;62.98
550;BME280;20066;48.764;9.176;2022-12-18T01:36:24;99314.09;;;-3.68;61.76
550;BME280;20066;48.764;9.176;2022-12-18T01:38:53;99317.50;;;-3.53;60.48
550;BME280;20066;48.764;9.176;2022-12-18T01:41:24;99322.75;;;-3.58;61.15
550;BME280;20066;48.764;9.176;2022-12-18T01:43:55;99330.91;;;-3.29;59.19
550;BME280;20066;48.764;9.176;2022-12-18T01:46:26;99334.06;;;-3.22;59.27
550;BME280;20066;48.764;9.176;2022-12-18T01:48:57;99330.34;;;-3.82;60.67
550;BME280;20066;48.764;9.176;2022-12-18T01:51:26;99323.47;;;-4.08;61.05
550;BME280;20066;48.764;9.176;2022-12-18T01:53:55;99331.69;;;-3.69;61.28
550;BME280;20066;48.764;9.176;2022-12-18T01:56:24;99330.88;;;-3.74;60.71
550;BME280;20066;48.764;9.176;2022-12-18T01:58:59;99325.63;;;-3.64;61.27
550;BME280;20066;48.764;9.176;2022-12-18T02:01:29;99327.72;;;-3.66;61.01
550;BME280;20066;48.764;9.176;2022-12-18T02:04:18;99321.16;;;-3.84;61.75
550;BME280;20066;48.764;9.176;2022-12-18T02:06:50;99309.03;;;-3.95;61.61
550;BME280;20066;48.764;9.176;2022-12-18T02:09:26;99311.47;;;-3.68;61.08
550;BME280;20066;48.764;9.176;2022-12-18T02:12:02;99313.56;;;-3.70;60.05
550;BME280;20066;48.764;9.176;2022-12-18T02:14:39;99321.50;;;-4.48;62.11
550;BME280;20066;48.764;9.176;2022-12-18T02:17:11;99316.28;;;-4.38;64.14
550;BME280;20066;48.764;9.176;2022-12-18T02:19:53;99313.44;;;-4.31;63.17
550;BME280;20066;48.764;9.176;2022-12-18T02:22:29;99327.97;;;-3.93;62.01
550;BME280;20066;48.764;9.176;2022-12-18T02:25:13;99327.91;;;-4.18;63.17
550;BME280;20066;48.764;9.176;2022-12-18T02:27:46;99317.47;;;-3.98;62.54
550;BME280;20066;48.764;9.176;2022-12-18T02:30:17;99323.00;;;-3.49;60.83
550;BME280;20066;48.764;9.176;2022-12-18T02:32:47;99321.94;;;-3.18;59.33
550;BME280;20066;48.764;9.176;2022-12-18T02:35:20;99332.47;;;-3.23;58.83
550;BME280;20066;48.764;9.176;2022-12-18T02:37:50;99336.66;;;-3.77;60.55
550;BME280;20066;48.764;9.176;2022-12-18T02:40:19;99341.94;;;-3.67;60.49
550;BME280;20066;48.764;9.176;2022-12-18T02:42:50;99334.28;;;-3.74;59.62
550;BME280;20066;48.764;9.176;2022-12-18T02:45:18;99334.00;;;-4.65;62.63
550;BME280;20066;48.764;9.176;2022-12-18T02:47:47;99333.47;;;-3.95;61.59
550;BME280;20066;48.764;9.176;2022-12-18T02:50:19;99341.41;;;-3.49;60.74
550;BME280;20066;48.764;9.176;2022-12-18T02:52:58;99348.00;;;-3.41;59.97
550;BME280;20066;48.764;9.176;2022-12-18T02:55:41;99347.47;;;-3.23;58.84
550;BME280;20066;48.764;9.176;2022-12-18T02:58:16;99351.41;;;-3.16;59.09
550;BME280;20066;48.764;9.176;2022-12-18T03:00:52;99347.47;;;-2.98;58.38
550;BME280;20066;48.764;9.176;2022-12-18T03:03:29;99344.28;;;-3.10;58.10
550;BME280;20066;48.764;9.176;2022-12-18T03:06:00;99338.78;;;-3.14;58.07
550;BME280;20066;48.764;9.176;2022-12-18T03:08:31;99342.47;;;-3.25;58.46
550;BME280;20066;48.764;9.176;2022-12-18T03:11:02;99344.84;;;-3.18;59.08
550;BME280;20066;48.764;9.176;2022-12-18T03:13:36;99344.03;;;-2.93;57.95
550;BME280;20066;48.764;9.176;2022-12-18T03:16:08;99342.44;;;-3.80;61.12
550;BME280;20066;48.764;9.176;2022-12-18T03:18:39;99350.88;;;-3.18;59.01
550;BME280;20066;48.764;9.176;2022-12-18T03:21:10;99362.97;;;-3.67;59.74
550;BME280;20066;48.764;9.176;2022-12-18T03:23:44;99359.56;;;-3.32;59.56
550;BME280;20066;48.764;9.176;2022-12-18T03:26:17;99360.06;;;-3.51;59.60
550;BME280;20066;48.764;9.176;2022-12-18T03:28:50;99358.53;;;-3.52;59.72
550;BME280;20066;48.764;9.176;2022-12-18T03:31:20;99362.06;;;-4.71;63.60
550;BME280;20066;48.764;9.176;2022-12-18T03:33:52;99372.31;;;-5.06;66.08
550;BME280;20066;48.764;9.176;2022-12-18T03:36:20;99361.78;;;-5.11;66.01
550;BME280;20066;48.764;9.176;2022-12-18T03:38:47;99365.25;;;-4.58;64.82
550;BME280;20066;48.764;9.176;2022-12-18T03:41:19;99358.00;;;-4.88;66.26
550;BME280;20066;48.764;9.176;2022-12-18T03:43:54;99365.56;;;-5.34;66.66
550;BME280;20066;48.764;9.176;2022-12-18T03:46:27;99361.75;;;-4.74;65.66
550;BME280;20066;48.764;9.176;2022-12-18T03:49:01;99350.38;;;-4.90;66.75
550;BME280;20066;48.764;9.176;2022-12-18T03:51:39;99356.81;;;-4.13;63.86
550;BME280;20066;48.764;9.176;2022-12-18T03:54:11;99364.03;;;-4.88;64.32
550;BME280;20066;48.764;9.176;2022-12-18T03:56:45;99367.31;;;-4.66;65.27
550;BME280;20066;48.764;9.176;2022-12-18T03:59:19;99363.47;;;-4.53;64.37
550;BME280;20066;48.764;9.176;2022-12-18T04:01:49;99364.50;;;-3.92;62.43
550;BME280;20066;48.764;9.176;2022-12-18T04:04:18;99368.59;;;-4.21;62.41
550;BME280;20066;48.764;9.176;2022-12-18T04:06:48;99367.28;;;-4.24;63.12
550;BME280;20066;48.764;9.176;2022-12-18T04:09:17;99361.47;;;-5.52;66.09
550;BME280;20066;48.764;9.176;2022-12-18T04:11:46;99360.50;;;-5.72;67.16
550;BME280;20066;48.764;9.176;2022-12-18T04:14:14;99353.47;;;-5.94;67.98
550;BME280;20066;48.764;9.176;2022-12-18T04:16:45;99360.97;;;-5.49;67.02
550;BME280;20066;48.764;9.176;2022-12-18T04:19:13;99362.13;;;-5.34;64.51
550;BME280;20066;48.764;9.176;2022-12-18T04:21:41;99363.94;;;-5.67;66.46
550;BME280;20066;48.764;9.176;2022-12-18T04:24:08;99355.44;;;-5.52;66.68
550;BME280;20066;48.764;9.176;2022-12-18T04:26:36;99363.44;;;-5.69;66.53
550;BME280;20066;48.764;9.176;2022-12-18T04:29:04;99361.28;;;-5.45;66.77
550;BME280;20066;48.764;9.176;2022-12-18T04:31:32;99360.69;;;-4.83;63.86
550;BME280;20066;48.764;9.176;2022-12-18T04:34:02;99375.13;;;-5.50;64.09
550;BME280;20066;48.764;9.176;2022-12-18T04:36:29;99380.88;;;-6.45;67.27
550;BME280;20066;48.764;9.176;2022-12-18T04:38:58;99381.59;;;-6.06;66.79
550;BME280;20066;48.764;9.176;2022-12-18T04:41:25;99385.38;;;-6.62;68.44
550;BME280;20066;48.764;9.176;2022-12-18T04:43:53;99376.94;;;-6.86;69.55
550;BME280;20066;48.764;9.176;2022-12-18T04:46:21;99371.03;;;-6.76;69.60
550;BME280;20066;48.764;9.176;2022-12-18T04:48:48;99373.72;;;-6.93;69.33
550;BME280;20066;48.764;9.176;2022-12-18T04:51:18;99365.88;;;-6.93;69.11
550;BME280;20066;48.764;9.176;2022-12-18T04:53:52;99356.69;;;-6.57;69.05
550;BME280;20066;48.764;9.176;2022-12-18T04:56:20;99344.53;;;-6.46;66.97
550;BME280;20066;48.764;9.176;2022-12-18T04:58:47;99341.59;;;-6.28;67.35
550;BME280;20066;48.764;9.176;2022-12-18T05:01:16;99334.31;;;-5.99;65.50
550;BME280;20066;48.764;9.176;2022-12-18T05:03:45;99345.06;;;-5.37;64.92
550;BME280;20066;48.764;9.176;2022-12-18T05:06:13;99347.78;;;-5.27;64.13
550;BME280;20066;48.764;9.176;2022-12-18T05:08:42;99352.91;;;-5.10;64.00
550;BME280;20066;48.764;9.176;2022-12-18T05:11:14;99349.66;;;-4.85;62.88
550;BME280;20066;48.764;9.176;2022-12-18T05:13:43;99359.03;;;-4.47;60.97
550;BME280;20066;48.764;9.176;2022-12-18T05:16:12;99358.53;;;-4.39;60.36
550;BME280;20066;48.764;9.176;2022-12-18T05:18:41;99356.25;;;-4.21;59.88
550;BME280;20066;48.764;9.176;2022-12-18T05:21:09;99353.00;;;-4.43;60.51
550;BME280;20066;48.764;9.176;2022-12-18T05:23:36;99372.56;;;-4.71;60.15
550;BME280;20066;48.764;9.176;2022-12-18T05:26:07;99367.16;;;-4.49;60.15
550;BME280;20066;48.764;9.176;2022-12-18T05:28:35;99377.00;;;-4.19;58.57
550;BME280;20066;48.764;9.176;2022-12-18T05:31:04;99383.63;;;-4.06;58.70
550;BME280;20066;48.764;9.176;2022-12-18T05:33:34;99387.31;;;-3.97;57.60
550;BME280;20066;48.764;9.176;2022-12-18T05:36:04;99382.38;;;-3.84;56.81
550;BME280;20066;48.764;9.176;2022-12-18T05:38:33;99387.81;;;-4.63;59.47
550;BME280;20066;48.764;9.176;2022-12-18T05:41:02;99385.66;;;-4.24;57.89
550;BME280;20066;48.764;9.176;2022-12-18T05:43:31;99389.13;;;-4.08;57.34
550;BME280;20066;48.764;9.176;2022-12-18T05:46:03;99389.97;;;-3.87;56.94
550;BME280;20066;48.764;9.176;2022-12-18T05:48:31;99391.00;;;-4.61;57.68
550;BME280;20066;48.764;9.176;2022-12-18T05:51:04;99390.53;;;-4.47;58.32
550;BME280;20066;48.764;9.176;2022-12-18T05:53:33;99374.56;;;-4.36;57.60
550;BME280;20066;48.764;9.176;2022-12-18T05:56:02;99372.56;;;-4.66;58.48
550;BME280;20066;48.764;9.176;2022-12-18T05:58:33;99379.78;;;-4.88;59.38
550;BME280;20066;48.764;9.176;2022-12-18T06:01:07;99371.31;;;-4.58;57.88
550;BME280;20066;48.764;9.176;2022-12-18T06:03:35;99367.22;;;-4.39;58.15
550;BME280;20066;48.764;9.176;2022-12-18T06:06:03;99372.88;;;-4.62;58.11
550;BME280;20066;48.764;9.176;2022-12-18T06:08:31;99378.59;;;-4.70;58.17
550;BME280;20066;48.764;9.176;2022-12-18T06:10:59;99383.13;;;-4.61;58.43
550;BME280;20066;48.764;9.176;2022-12-18T06:13:27;99383.41;;;-4.52;58.42
550;BME280;20066;48.764;9.176;2022-12-18T06:15:56;99390.19;;;-4.61;58.20
550;BME280;20066;48.764;9.176;2022-12-18T06:18:23;99387.09;;;-4.48;56.73
550;BME280;20066;48.764;9.176;2022-12-18T06:20:55;99378.66;;;-4.60;56.73
550;BME280;20066;48.764;9.176;2022-12-18T06:23:23;99386.00;;;-5.63;57.49
550;BME280;20066;48.764;9.176;2022-12-18T06:25:50;99392.44;;;-5.17;57.49
550;BME280;20066;48.764;9.176;2022-12-18T06:28:18;99391.97;;;-4.67;57.59
550;BME280;20066;48.764;9.176;2022-12-18T06:30:47;99406.00;;;-5.52;59.84
550;BME280;20066;48.764;9.176;2022-12-18T06:33:17;99404.69;;;-5.54;60.08
550;BME280;20066;48.764;9.176;2022-12-18T06:35:44;99405.63;;;-5.07;58.64
550;BME280;20066;48.764;9.176;2022-12-18T06:38:12;99396.84;;;-4.85;57.60
550;BME280;20066;48.764;9.176;2022-12-18T06:40:40;99407.28;;;-5.27;58.76
550;BME280;20066;48.764;9.176;2022-12-18T06:43:08;99413.19;;;-5.10;57.48
550;BME280;20066;48.764;9.176;2022-12-18T06:45:35;99413.66;;;-5.72;59.60
550;BME280;20066;48.764;9.176;2022-12-18T06:48:03;99408.31;;;-5.28;58.27
550;BME280;20066;48.764;9.176;2022-12-18T06:50:32;99412.31;;;-5.21;58.13
550;BME280;20066;48.764;9.176;2022-12-18T06:53:00;99405.97;;;-5.30;58.56
550;BME280;20066;48.764;9.176;2022-12-18T06:55:28;99402.03;;;-5.27;58.36
550;BME280;20066;48.764;9.176;2022-12-18T06:57:56;99398.41;;;-5.21;58.56
550;BME280;20066;48.764;9.176;2022-12-18T07:00:23;99396.28;;;-4.92;57.50
550;BME280;20066;48.764;9.176;2022-12-18T07:02:51;99403.19;;;-5.13;57.68
550;BME280;20066;48.764;9.176;2022-12-18T07:05:19;99413.38;;;-4.85;57.57
550;BME280;20066;48.764;9.176;2022-12-18T07:07:48;99415.59;;;-4.67;56.93
550;BME280;20066;48.764;9.176;2022-12-18T07:10:16;99425.25;;;-4.77;57.52
550;BME280;20066;48.764;9.176;2022-12-18T07:12:43;99436.56;;;-5.04;57.32
550;BME280;20066;48.764;9.176;2022-12-18T07:15:11;99436.53;;;-5.09;56.57
550;BME280;20066;48.764;9.176;2022-12-18T07:17:39;99435.78;;;-5.04;57.76
550;BME280;20066;48.764;9.176;2022-12-18T07:20:08;99427.06;;;-5.15;59.29
550;BME280;20066;48.764;9.176;2022-12-18T07:22:36;99437.16;;;-4.60;57.29
550;BME280;20066;48.764;9.176;2022-12-18T07:25:07;99436.66;;;-4.51;55.80
550;BME280;20066;48.764;9.176;2022-12-18T07:27:35;99437.66;;;-4.68;56.49
550;BME280;20066;48.764;9.176;2022-12-18T07:30:04;99438.22;;;-4.61;56.65
550;BME280;20066;48.764;9.176;2022-12-18T07:32:31;99435.56;;;-4.97;56.76
550;BME280;20066;48.764;9.176;2022-12-18T07:34:59;99438.22;;;-4.61;56.72
550;BME280;20066;48.764;9.176;2022-12-18T07:37:27;99448.09;;;-4.73;56.89
550;BME280;20066;48.764;9.176;2022-12-18T07:39:55;99437.78;;;-5.43;57.37
550;BME280;20066;48.764;9.176;2022-12-18T07:42:24;99446.38;;;-5.53;57.75
550;BME280;20066;48.764;9.176;2022-12-18T07:44:58;99442.78;;;-5.42;58.21
550;BME280;20066;48.764;9.176;2022-12-18T07:47:26;99455.50;;;-5.55;59.07
550;BME280;20066;48.764;9.176;2022-12-18T07:49:54;99449.88;;;-4.83;56.98
550;BME280;20066;48.764;9.176;2022-12-18T07:52:22;99456.97;;;-4.79;56.74
550;BME280;20066;48.764;9.176;2022-12-18T07:54:51;99448.34;;;-5.06;58.05
550;BME280;20066;48.764;9.176;2022-12-18T07:57:19;99451.47;;;-5.09;57.29
550;BME280;20066;48.764;9.176;2022-12-18T08:00:09;99456.34;;;-4.54;56.61
550;BME280;20066;48.764;9.176;2022-12-18T08:02:38;99452.34;;;-5.30;57.94
550;BME280;20066;48.764;9.176;2022-12-18T08:05:08;99451.06;;;-4.59;56.37
550;BME280;20066;48.764;9.176;2022-12-18T08:07:36;99451.34;;;-4.61;56.60
550;BME280;20066;48.764;9.176;2022-12-18T08:10:04;99450.91;;;-4.84;57.06
550;BME280;20066;48.764;9.176;2022-12-18T08:12:32;99451.47;;;-4.35;56.40
550;BME280;20066;48.764;9.176;2022-12-18T08:15:00;99452.81;;;-4.33;56.29
550;BME280;20066;48.764;9.176;2022-12-18T08:17:29;99453.44;;;-4.57;56.52
550;BME280;20066;48.764;9.176;2022-12-18T08:19:57;99447.16;;;-4.04;55.26
550;BME280;20066;48.764;9.176;2022-12-18T08:22:25;99447.94;;;-4.09;56.26
550;BME280;20066;48.764;9.176;2022-12-18T08:24:53;99445.50;;;-4.26;56.46
550;BME280;20066;48.764;9.176;2022-12-18T08:27:21;99447.53;;;-4.38;56.10
550;BME280;20066;48.764;9.176;2022-12-18T08:29:56;99438.28;;;-3.88;55.21
550;BME280;20066;48.764;9.176;2022-12-18T08:32:24;99449.75;;;-4.62;57.38
550;BME280;20066;48.764;9.176;2022-12-18T08:34:53;99452.88;;;-4.17;56.28
550;BME280;20066;48.764;9.176;2022-12-18T08:37:21;99446.22;;;-3.83;56.03
550;BME280;20066;48.764;9.176;2022-12-18T08:39:48;99441.41;;;-4.06;56.79
550;BME280;20066;48.764;9.176;2022-12-18T08:42:16;99443.47;;;-4.13;57.47
550;BME280;20066;48.764;9.176;2022-12-18T08:45:02;99441.00;;;-3.68;55.33
550;BME280;20066;48.764;9.176;2022-12-18T08:47:30;99450.44;;;-3.72;55.51
550;BME280;20066;48.764;9.176;2022-12-18T08:49:59;99448.06;;;-3.73;56.13
550;BME280;20066;48.764;9.176;2022-12-18T08:52:27;99452.09;;;-3.40;55.86
550;BME280;20066;48.764;9.176;2022-12-18T08:54:54;99446.56;;;-3.59;56.24
550;BME280;20066;48.764;9.176;2022-12-18T08:57:22;99452.03;;;-5.07;60.25
550;BME280;20066;48.764;9.176;2022-12-18T08:59:50;99448.97;;;-4.57;60.32
550;BME280;20066;48.764;9.176;2022-12-18T09:02:17;99439.19;;;-4.25;60.07
550;BME280;20066;48.764;9.176;2022-12-18T09:04:46;99426.31;;;-3.54;58.29
550;BME280;20066;48.764;9.176;2022-12-18T09:07:24;99423.19;;;-3.46;58.62
550;BME280;20066;48.764;9.176;2022-12-18T09:09:51;99421.59;;;-3.52;57.92
550;BME280;20066;48.764;9.176;2022-12-18T09:12:19;99428.47;;;-3.20;58.29
550;BME280;20066;48.764;9.176;2022-12-18T09:14:47;99424.50;;;-3.28;58.21
550;BME280;20066;48.764;9.176;2022-12-18T09:17:14;99431.88;;;-3.30;58.80
550;BME280;20066;48.764;9.176;2022-12-18T09:19:42;99427.16;;;-2.82;57.03
550;BME280;20066;48.764;9.176;2022-12-18T09:22:10;99428.81;;;-3.99;60.50
550;BME280;20066;48.764;9.176;2022-12-18T09:24:39;99427.25;;;-4.52;62.19
550;BME280;20066;48.764;9.176;2022-12-18T09:27:07;99423.84;;;-4.48;62.92
550;BME280;20066;48.764;9.176;2022-12-18T09:29:35;99407.84;;;-3.84;62.08
550;BME280;20066;48.764;9.176;2022-12-18T09:32:03;99409.28;;;-3.16;59.49
550;BME280;20066;48.764;9.176;2022-12-18T09:34:31;99412.91;;;-3.62;60.86
550;BME280;20066;48.764;9.176;2022-12-18T09:36:59;99419.00;;;-3.31;60.17
550;BME280;20066;48.764;9.176;2022-12-18T09:39:26;99416.09;;;-3.35;60.89
550;BME280;20066;48.764;9.176;2022-12-18T09:41:57;99412.88;;;-2.46;58.47
550;BME280;20066;48.764;9.176;2022-12-18T09:44:27;99414.78;;;-1.82;57.51
550;BME280;20066;48.764;9.176;2022-12-18T09:47:05;99410.06;;;-1.95;56.50
550;BME280;20066;48.764;9.176;2022-12-18T09:49:40;99424.66;;;-0.57;52.94
550;BME280;20066;48.764;9.176;2022-12-18T09:52:12;99407.75;;;-0.85;53.53
550;BME280;20066;48.764;9.176;2022-12-18T09:54:44;99390.00;;;-1.42;55.03
550;BME280;20066;48.764;9.176;2022-12-18T09:57:17;99394.50;;;-0.27;53.31
550;BME280;20066;48.764;9.176;2022-12-18T09:59:49;99394.44;;;0.39;52.13
550;BME280;20066;48.764;9.176;2022-12-18T10:02:21;99402.44;;;0.53;51.15
550;BME280;20066;48.764;9.176;2022-12-18T10:05:00;99405.66;;;0.69;50.29
550;BME280;20066;48.764;9.176;2022-12-18T10:07:36;99394.72;;;0.38;51.09
550;BME280;20066;48.764;9.176;2022-12-18T10:10:10;99406.25;;;-0.14;52.00
550;BME280;20066;48.764;9.176;2022-12-18T10:12:49;99407.75;;;0.34;53.00
550;BME280;20066;48.764;9.176;2022-12-18T10:15:32;99407.94;;;0.94;50.59
550;BME280;20066;48.764;9.176;2022-12-18T10:18:12;99407.59;;;0.44;51.81
550;BME280;20066;48.764;9.176;2022-12-18T10:20:49;99411.78;;;1.34;49.47
550;BME280;20066;48.764;9.176;2022-12-18T10:23:21;99417.09;;;1.75;49.68
550;BME280;20066;48.764;9.176;2022-12-18T10:25:55;99426.00;;;4.24;44.03
550;BME280;20066;48.764;9.176;2022-12-18T10:28:32;99421.56;;;2.79;45.63
550;BME280;20066;48.764;9.176;2022-12-18T10:31:00;99413.66;;;2.65;48.41
550;BME280;20066;48.764;9.176;2022-12-18T10:33:29;99413.53;;;3.85;45.05
550;BME280;20066;48.764;9.176;2022-12-18T10:35:58;99410.22;;;4.28;41.94
550;BME280;20066;48.764;9.176;2022-12-18T10:38:28;99409.09;;;1.20;48.97
550;BME280;20066;48.764;9.176;2022-12-18T10:40:57;99419.72;;;2.30;48.52
550;BME280;20066;48.764;9.176;2022-12-18T10:43:28;99422.59;;;3.14;46.78
550;BME280;20066;48.764;9.176;2022-12-18T10:46:22;99417.25;;;3.36;46.71
550;BME280;20066;48.764;9.176;2022-12-18T10:48:54;99420.16;;;3.57;44.13
550;BME280;20066;48.764;9.176;2022-12-18T10:51:25;99410.53;;;4.35;44.12
550;BME280;20066;48.764;9.176;2022-12-18T10:53:59;99409.47;;;4.62;42.80
550;BME280;20066;48.764;9.176;2022-12-18T10:56:31;99418.09;;;7.28;38.47
550;BME280;20066;48.764;9.176;2022-12-18T10:59:02;99424.66;;;8.00;37.19
550;BME280;20066;48.764;9.176;2022-12-18T11:01:46;99422.00;;;3.87;44.46
550;BME280;20066;48.764;9.176;2022-12-18T11:04:18;99415.50;;;3.63;44.98
550;BME280;20066;48.764;9.176;2022-12-18T11:06:54;99412.63;;;2.97;46.82
550;BME280;20066;48.764;9.176;2022-12-18T11:09:24;99416.38;;;3.19;46.32
550;BME280;20066;48.764;9.176;2022-12-18T11:11:53;99408.91;;;4.00;45.48
550;BME280;20066;48.764;9.176;2022-12-18T11:14:23;99401.13;;;4.20;45.34
550;BME280;20066;48.764;9.176;2022-12-18T11:16:54;99392.81;;;3.65;45.28
550;BME280;20066;48.764;9.176;2022-12-18T11:19:43;99392.00;;;5.71;41.52
550;BME280;20066;48.764;9.176;2022-12-18T11:22:19;99383.72;;;6.23;39.76
550;BME280;20066;48.764;9.176;2022-12-18T11:24:53;99381.91;;;3.75;45.43
550;BME280;20066;48.764;9.176;2022-12-18T11:27:47;99386.28;;;3.40;47.24
550;BME280;20066;48.764;9.176;2022-12-18T11:30:23;99382.53;;;-0.43;56.79
550;BME280;20066;48.764;9.176;2022-12-18T11:32:55;99368.97;;;0.06;55.69
550;BME280;20066;48.764;9.176;2022-12-18T11:35:32;99367.63;;;1.71;52.87
550;BME280;20066;48.764;9.176;2022-12-18T11:38:21;99375.81;;;1.14;53.76
550;BME280;20066;48.764;9.176;2022-12-18T11:40:55;99376.63;;;-0.88;59.32
550;BME280;20066;48.764;9.176;2022-12-18T11:43:27;99374.97;;;-0.55;58.36
550;BME280;20066;48.764;9.176;2022-12-18T11:46:01;99362.84;;;-0.56;59.65
550;BME280;20066;48.764;9.176;2022-12-18T11:48:37;99368.38;;;-0.52;59.56
550;BME280;20066;48.764;9.176;2022-12-18T11:51:12;99359.53;;;-0.66;59.51
550;BME280;20066;48.764;9.176;2022-12-18T11:53:42;99365.50;;;-1.42;62.61
550;BME280;20066;48.764;9.176;2022-12-18T11:56:26;99358.31;;;-1.37;62.62
550;BME280;20066;48.764;9.176;2022-12-18T11:59:03;99360.56;;;-0.91;60.12
550;BME280;20066;48.764;9.176;2022-12-18T12:01:45;99357.69;;;-1.24;60.85
550;BME280;20066;48.764;9.176;2022-12-18T12:04:37;99343.84;;;-1.11;60.82
550;BME280;20066;48.764;9.176;2022-12-18T12:07:22;99337.16;;;-1.32;61.88
550;BME280;20066;48.764;9.176;2022-12-18T12:10:00;99338.97;;;-0.69;61.52
550;BME280;20066;48.764;9.176;2022-12-18T12:12:38;99336.56;;;-0.95;61.87
550;BME280;20066;48.764;9.176;2022-12-18T12:15:22;99329.38;;;-1.13;62.08
550;BME280;20066;48.764;9.176;2022-12-18T12:17:59;99336.75;;;-1.15;62.67
550;BME280;20066;48.764;9.176;2022-12-18T12:20:45;99332.59;;;-0.02;60.10
550;BME280;20066;48.764;9.176;2022-12-18T12:23:21;99328.50;;;-0.56;59.56
550;BME280;20066;48.764;9.176;2022-12-18T12:26:00;99335.13;;;-0.82;60.83
550;BME280;20066;48.764;9.176;2022-12-18T12:28:42;99335.41;;;-0.84;61.31
550;BME280;20066;48.764;9.176;2022-12-18T12:31:18;99337.53;;;-1.43;63.07
550;BME280;20066;48.764;9.176;2022-12-18T12:33:56;99329.44;;;-0.94;62.41
550;BME280;20066;48.764;9.176;2022-12-18T12:36:36;99331.44;;;-0.81;61.86
550;BME280;20066;48.764;9.176;2022-12-18T12:39:11;99331.19;;;-0.85;61.90
550;BME280;20066;48.764;9.176;2022-12-18T12:41:42;99333.22;;;-0.29;60.55
550;BME280;20066;48.764;9.176;2022-12-18T12:44:33;99327.06;;;-0.67;61.60
550;BME280;20066;48.764;9.176;2022-12-18T12:47:17;99328.19;;;-0.73;61.02
550;BME280;20066;48.764;9.176;2022-12-18T12:49:47;99324.88;;;-0.60;60.21
550;BME280;20066;48.764;9.176;2022-12-18T12:52:27;99338.09;;;-0.17;59.73
550;BME280;20066;48.764;9.176;2022-12-18T12:54:56;99344.81;;;0.13;59.39
550;BME280;20066;48.764;9.176;2022-12-18T12:57:30;99344.47;;;0.38;58.54
550;BME280;20066;48.764;9.176;2022-12-18T13:00:04;99351.28;;;0.76;57.46
550;BME280;20066;48.764;9.176;2022-12-18T13:02:35;99352.09;;;0.91;55.99
550;BME280;20066;48.764;9.176;2022-12-18T13:05:16;99351.97;;;1.14;56.47
550;BME280;20066;48.764;9.176;2022-12-18T13:07:51;99346.50;;;1.25;55.61
550;BME280;20066;48.764;9.176;2022-12-18T13:10:26;99338.16;;;1.17;54.59
550;BME280;20066;48.764;9.176;2022-12-18T13:12:55;99346.59;;;1.60;53.78
550;BME280;20066;48.764;9.176;2022-12-18T13:15:26;99353.22;;;2.13;53.10
550;BME280;20066;48.764;9.176;2022-12-18T13:18:06;99357.31;;;1.55;53.17
550;BME280;20066;48.764;9.176;2022-12-18T13:20:41;99360.00;;;1.09;55.70
550;BME280;20066;48.764;9.176;2022-12-18T13:23:27;99344.94;;;1.65;53.52
550;BME280;20066;48.764;9.176;2022-12-18T13:25:56;99347.47;;;2.33;52.83
550;BME280;20066;48.764;9.176;2022-12-18T13:28:50;99337.00;;;1.51;53.84
550;BME280;20066;48.764;9.176;2022-12-18T13:34:31;99330.69;;;2.24;52.60
550;BME280;20066;48.764;9.176;2022-12-18T13:43:24;99321.97;;;0.73;57.00
550;BME280;20066;48.764;9.176;2022-12-18T13:46:01;99316.38;;;1.20;57.50
550;BME280;20066;48.764;9.176;2022-12-18T13:48:32;99316.94;;;0.58;59.57
550;BME280;20066;48.764;9.176;2022-12-18T13:51:03;99323.53;;;0.41;59.92
550;BME280;20066;48.764;9.176;2022-12-18T13:53:39;99316.16;;;1.44;56.98
550;BME280;20066;48.764;9.176;2022-12-18T13:56:15;99325.50;;;1.42;56.93
550;BME280;20066;48.764;9.176;2022-12-18T13:58:43;99318.31;;;1.70;56.60